Date,TemperatureHighF,TemperatureAvgF,TemperatureLowF,DewpointHighF,DewpointAvgF,DewpointLowF,HumidityHigh,HumidityAvg,HumidityLow,PressureMaxIn,PressureMinIn,WindSpeedMaxMPH,WindSpeedAvgMPH,GustSpeedMaxMPH,PrecipitationSumIn
2013-1-3,22,22,22,20,20,20,93,93,93,30.34,30.34,3,3,4,0.00
2013-1-4,41,32,25,27,25,23,93,78,52,30.44,30.32,3,2,6,0.00
2013-1-5,41,38,33,30,29,27,82,71,64,30.29,30.20,8,4,13,0.00
2013-1-6,45,36,31,27,25,23,77,65,45,30.32,30.30,9,6,14,0.00
2013-1-7,54,44,29,34,28,25,85,57,38,30.33,30.14,6,2,11,0.00
2013-1-8,58,45,27,46,34,24,87,68,51,30.15,30.03,5,2,11,0.07
2013-1-9,52,48,44,45,44,42,93,87,75,30.35,30.29,4,2,7,0.20
2013-1-10,50,47,44,48,45,42,93,92,91,30.10,29.83,7,3,13,0.01
2013-1-11,67,58,47,47,46,44,89,66,45,29.85,29.73,9,5,19,0.28
2013-1-12,53,52,52,49,43,35,88,73,53,29.90,29.84,5,3,12,0.00
2013-1-13,25,24,23,21,20,19,85,83,80,30.17,30.14,13,8,18,0.32
2013-1-14,27,22,16,15,13,12,87,70,58,30.45,30.31,5,2,8,0.00
2013-1-15,30,26,18,20,17,15,86,69,59,30.32,30.14,5,2,8,0.00
2013-1-16,43,34,20,23,20,18,93,61,36,30.17,30.06,9,4,14,0.00
2013-1-17,45,37,32,32,30,28,85,77,52,30.40,30.27,6,4,14,0.00
2013-1-18,53,34,24,30,26,22,92,75,33,30.44,30.24,9,3,16,0.00
2013-1-19,63,55,42,38,34,30,63,47,37,30.14,30.03,15,9,22,0.00
2013-1-20,46,37,31,32,29,26,94,76,49,30.26,30.24,6,2,11,0.00
2013-1-21,36,29,21,16,15,14,73,56,43,30.38,30.29,6,3,9,0.00
2013-1-22,36,31,21,20,18,14,73,58,51,30.30,30.21,6,3,10,0.00
2013-1-23,52,34,23,39,28,21,91,79,60,30.24,30.14,2,1,4,0.00
2013-1-29,67,61,53,61,57,51,92,87,80,29.73,29.46,10,6,24,1.34
2013-1-30,39,34,30,37,29,24,91,82,78,29.85,29.55,27,18,36,1.48
2013-1-31,44,35,24,27,25,21,88,68,51,30.06,30.00,11,6,18,0.00
2013-2-1,21,15,11,7,6,4,75,66,54,30.45,30.43,5,3,7,0.00
2013-2-5,63,61,54,36,35,34,48,38,34,29.98,29.94,8,5,15,0.00
2013-2-6,60,54,44,41,37,33,66,52,46,30.11,29.96,10,7,17,0.00
2013-2-7,55,50,45,49,47,42,92,89,78,29.92,29.85,3,1,7,0.23
2013-2-8,49,40,33,35,32,29,87,71,54,30.29,30.21,6,4,9,0.09
2013-2-9,40,37,33,32,31,29,86,78,72,30.22,30.07,11,6,17,0.00
2013-2-10,60,56,49,53,43,31,92,68,34,29.67,29.63,17,9,31,0.79
2013-2-11,53,41,35,30,28,26,78,60,35,30.16,30.09,9,4,13,0.00
2013-2-12,43,38,29,33,30,27,94,76,58,30.10,29.94,3,1,6,0.00
2013-2-13,50,40,34,35,33,31,94,77,49,29.98,29.89,13,6,20,0.20
2013-2-14,55,46,37,35,31,29,76,58,46,30.01,29.95,7,4,12,0.00
2013-2-15,40,35,32,27,24,17,81,67,39,30.29,30.24,8,7,16,0.00
2013-2-16,38,32,26,21,18,13,81,57,36,30.29,30.18,8,4,13,0.00
2013-2-17,32,32,32,22,22,22,67,67,67,30.06,30.06,0,0,1,0.00
2013-3-3,59,54,42,31,29,25,57,39,35,30.06,29.86,7,4,14,0.00
2013-3-4,66,55,40,47,41,31,81,59,46,29.70,29.58,6,4,12,0.00
2013-3-5,37,36,35,28,26,24,73,68,63,30.14,30.09,22,18,32,0.04
2013-3-7,62,50,33,30,28,26,74,46,28,30.28,30.13,8,5,16,0.00
2013-3-8,51,46,38,35,34,32,80,65,55,30.27,30.23,6,5,12,0.00
2013-3-9,70,62,51,53,45,38,65,54,38,29.96,29.76,14,8,23,0.01
2013-3-10,54,50,48,49,47,46,92,91,84,29.73,29.65,14,4,22,1.29
2013-3-11,33,31,29,27,25,24,86,81,77,29.94,29.89,19,14,24,0.01
2013-3-12,52,41,33,30,28,26,80,61,36,30.18,30.14,9,3,13,0.00
2013-3-13,52,43,30,22,20,19,68,43,28,30.40,30.35,8,4,13,0.00
2013-3-14,30,29,29,25,25,25,84,83,82,30.28,30.28,1,1,2,0.00
2013-3-15,78,66,46,47,44,42,88,49,28,30.02,29.76,16,6,32,0.00
2013-3-16,73,65,57,49,47,45,63,53,43,29.83,29.75,6,4,15,0.00
2013-3-17,40,39,39,38,37,37,92,92,91,29.91,29.84,6,4,11,0.12
2013-3-18,53,46,41,42,38,34,93,78,48,29.94,29.69,13,6,20,0.14
2013-3-19,49,38,31,32,28,23,93,71,36,30.16,30.09,4,2,12,0.00
2013-3-20,44,38,30,31,24,15,92,62,32,30.33,30.15,13,7,24,0.00
2013-3-21,41,34,31,30,20,11,93,60,32,30.04,29.84,8,5,17,0.00
2013-3-22,34,33,31,32,31,29,94,94,93,29.91,29.89,5,3,9,0.29
2013-3-23,38,35,34,36,33,32,94,94,93,29.91,29.80,4,3,11,0.23
2013-3-24,38,34,33,36,31,27,93,89,77,29.89,29.60,22,16,36,0.08
2013-3-25,32,28,25,24,22,20,83,79,69,30.24,30.09,20,15,27,0.00
2013-3-26,44,34,26,25,23,22,89,67,45,30.39,30.29,10,5,14,0.00
2013-3-27,59,58,56,30,30,29,37,34,32,30.15,30.14,5,4,12,0.00
2013-3-28,69,54,45,47,39,33,77,56,43,30.20,30.09,8,3,11,0.00
2013-3-29,55,51,48,52,48,45,91,90,86,30.19,30.12,4,1,8,0.16
2013-3-30,69,56,51,56,50,48,91,80,61,30.09,29.87,8,4,15,0.20
2013-3-31,68,58,53,49,46,39,87,67,34,29.94,29.89,4,2,8,0.18
2013-4-1,55,51,45,43,40,36,89,67,53,30.13,30.09,8,4,14,0.09
2013-4-2,37,36,35,35,33,32,92,90,88,30.27,30.21,7,3,12,0.31
2013-4-3,52,44,35,34,28,24,90,58,34,30.27,30.15,10,4,17,0.01
2013-4-4,53,49,39,37,34,32,86,59,47,30.12,30.04,5,2,9,0.15
2013-4-5,66,43,32,38,35,30,94,78,35,30.18,30.01,2,1,4,0.00
2013-4-6,74,63,55,46,44,40,56,51,36,29.92,29.77,15,7,22,0.00
2013-4-7,76,63,50,56,52,47,88,69,45,29.91,29.81,11,4,16,0.00
2013-4-8,71,69,68,59,59,59,73,71,67,29.74,29.73,8,5,17,0.02
2013-4-9,79,72,66,62,60,59,78,69,52,29.80,29.73,6,4,13,0.00
2013-4-10,57,52,45,53,48,41,88,87,84,29.80,29.70,20,10,28,0.00
2013-4-11,50,43,35,35,33,31,89,69,53,29.83,29.70,15,12,23,0.38
2013-4-12,56,54,49,37,35,32,60,49,43,29.96,29.92,11,7,23,0.00
2013-4-13,68,55,38,47,42,35,91,64,45,30.05,29.89,8,3,14,0.00
2013-4-14,74,64,54,50,48,44,77,59,34,29.71,29.59,9,4,20,0.00
2013-4-15,66,61,57,59,57,54,91,87,79,29.75,29.73,3,2,6,0.00
2013-4-16,68,68,68,60,60,60,75,75,75,29.92,29.92,2,2,7,0.00
2013-4-17,82,79,70,69,67,65,84,67,58,29.90,29.68,11,8,22,0.00
2013-4-19,53,48,43,31,29,27,52,48,42,30.05,30.03,17,15,27,0.00
2013-4-20,66,57,43,39,36,33,87,50,31,30.20,30.13,5,2,10,0.00
2013-4-21,61,54,48,43,42,41,82,67,48,30.27,30.25,7,4,15,0.00
2013-4-22,70,59,43,45,42,38,87,57,31,30.14,29.90,7,3,12,0.00
2013-4-23,59,52,39,55,48,37,93,86,63,30.02,29.80,7,4,14,0.15
2013-4-24,54,43,36,35,32,29,92,68,39,30.24,30.16,11,6,18,0.04
2013-4-25,69,54,33,37,34,31,92,52,25,30.35,30.21,4,2,7,0.00
2013-4-26,50,48,47,46,45,45,91,89,84,30.33,30.15,12,5,22,0.58
2013-4-27,53,51,50,50,48,47,91,91,90,30.04,30.00,4,2,9,0.84
2013-4-28,69,56,51,51,49,47,90,78,52,30.02,29.92,7,4,11,0.01
2013-4-29,84,60,48,59,52,45,92,79,41,29.91,29.81,4,1,10,0.00
2013-4-30,81,70,59,59,55,47,89,64,31,29.86,29.80,6,3,15,0.00
2013-5-1,81,69,55,65,59,52,90,72,49,29.98,29.92,7,3,11,0.00
2013-5-2,50,46,44,46,44,42,91,89,86,30.17,30.17,8,6,14,0.01
2013-5-3,39,36,33,37,34,31,94,93,92,30.09,29.96,13,8,20,0.73
2013-5-4,44,39,37,38,36,35,93,88,80,29.91,29.83,6,3,9,0.26
2013-5-5,58,49,42,50,43,39,91,81,67,30.06,29.98,6,5,16,0.01
2013-5-6,63,55,51,54,51,48,91,85,71,30.06,29.98,7,4,11,0.00
2013-5-7,77,68,50,54,52,48,92,61,40,30.07,29.96,3,1,7,0.00
2013-5-8,72,60,52,58,55,49,91,83,59,30.04,30.01,3,1,7,0.00
2013-5-9,69,63,59,59,58,56,90,82,67,29.96,29.89,20,7,28,0.38
2013-5-10,69,63,55,60,56,52,90,81,68,30.03,29.93,7,3,14,1.01
2013-5-11,71,56,48,55,50,45,91,83,45,30.10,30.03,5,1,17,0.01
2013-5-12,67,60,52,41,34,31,67,41,27,30.27,30.17,5,4,10,0.00
2013-5-13,78,66,52,51,47,45,81,53,39,30.18,30.05,7,4,11,0.00
2013-5-14,86,74,66,53,52,51,61,47,30,30.03,29.96,15,10,21,0.00
2013-5-15,81,75,66,67,63,54,76,67,62,29.98,29.89,11,5,15,0.00
2013-5-16,65,62,63,61,38,-100,89,88,88,29.88,29.83,3,2,7,0.02
2013-5-17,65,63,61,61,52,-100,88,88,87,29.93,29.91,4,2,6,0.02
2013-5-18,75,73,71,69,68,67,86,83,81,29.92,29.90,2,1,7,0.00
2013-5-19,86,82,72,69,67,64,87,62,49,29.83,29.66,9,5,18,0.00
2013-5-20,78,72,67,69,64,60,77,76,75,29.83,29.67,4,2,8,0.00
2013-5-21,65,62,60,61,59,57,89,88,85,29.87,29.68,9,4,21,0.64
2013-5-22,68,65,61,59,58,57,87,77,72,29.84,29.83,11,8,16,0.39
2013-5-23,70,70,69,57,57,56,64,64,64,30.09,30.08,5,3,8,0.00
2013-5-24,75,75,75,54,54,54,48,48,48,30.19,30.19,4,4,10,0.00
2013-5-25,69,69,69,56,56,56,64,64,64,30.20,30.20,2,2,6,0.00
2013-5-26,85,79,61,65,63,58,89,60,50,30.09,29.96,6,3,14,0.00
2013-5-27,80,74,68,69,66,64,87,79,67,29.96,29.90,8,4,16,0.00
2013-5-28,85,78,74,68,66,66,78,69,54,29.85,29.77,14,6,24,0.00
2013-5-29,82,74,68,67,65,64,88,75,59,29.89,29.81,8,4,15,0.00
2013-5-30,81,75,70,68,66,63,85,73,62,29.80,29.73,14,7,29,0.02
2013-5-31,85,75,64,71,68,60,88,79,63,29.81,29.67,7,2,12,0.27
2013-6-1,72,68,65,65,63,61,88,86,79,29.87,29.74,9,6,16,0.61
2013-6-2,66,64,57,57,56,54,90,77,69,30.03,30.00,6,3,12,0.01
2013-6-3,78,73,59,59,57,55,88,60,51,30.01,29.90,3,2,7,0.00
2013-6-4,78,66,60,65,60,57,89,82,62,30.00,29.91,4,1,8,0.00
2013-6-5,78,70,62,67,63,59,89,80,67,29.93,29.83,11,3,17,0.14
2013-6-6,69,63,59,63,60,56,89,88,82,29.92,29.88,5,2,7,0.14
2013-6-7,74,65,55,58,56,52,90,75,53,29.97,29.90,6,2,11,0.01
2013-6-8,78,62,53,62,55,50,90,78,54,29.94,29.84,3,1,9,0.00
2013-6-9,78,69,65,66,62,59,88,80,61,29.88,29.83,9,2,18,0.06
2013-6-10,89,83,77,69,67,64,71,59,43,29.90,29.84,15,12,24,0.00
2013-6-11,93,82,67,70,67,63,88,64,39,29.98,29.91,9,4,16,0.00
2013-6-12,89,78,73,72,70,69,88,78,57,29.96,29.87,8,2,13,0.00
2013-6-13,88,82,76,72,70,66,86,68,50,30.00,29.91,7,3,12,0.00
2013-6-14,72,70,67,67,66,64,89,87,84,30.02,30.01,2,1,3,0.00
2013-6-15,86,80,73,71,68,65,80,69,57,30.01,29.99,3,2,7,0.00
2013-6-16,85,77,70,73,70,66,87,78,64,30.00,29.93,8,3,17,0.04
2013-6-17,74,72,71,69,68,66,88,85,83,29.95,29.89,2,1,5,0.02
2013-6-18,81,70,64,68,64,60,88,81,64,30.01,29.94,5,2,7,0.01
2013-6-19,88,75,63,67,64,59,88,71,43,30.04,29.96,5,2,10,0.00
2013-6-20,89,78,66,70,66,63,89,70,51,30.07,30.02,5,3,15,0.00
2013-6-22,93,90,82,73,71,70,75,55,47,30.06,30.01,6,4,12,0.00
2013-6-23,80,75,72,73,70,68,88,84,79,29.99,29.96,3,2,8,0.00
2013-6-24,93,83,74,72,70,69,86,68,47,30.05,29.95,9,4,13,0.00
2013-6-25,88,83,79,73,71,69,78,67,55,29.98,29.83,10,6,17,0.00
2013-6-26,93,82,76,75,72,70,84,72,56,29.86,29.83,10,5,23,0.00
2013-6-27,97,85,74,79,75,70,87,72,53,29.96,29.84,8,3,11,0.00
2013-6-28,89,80,75,71,69,67,82,72,48,29.91,29.82,13,4,18,0.00
2013-6-29,78,74,66,62,61,61,85,66,55,29.85,29.84,7,5,13,0.00
2013-6-30,76,72,67,62,61,61,82,71,59,29.90,29.88,6,4,14,0.00
2013-7-1,80,71,64,61,59,56,87,69,44,30.01,29.98,5,3,11,0.00
2013-7-2,74,64,58,58,57,55,91,80,58,30.07,30.01,6,2,9,0.00
2013-7-3,60,58,56,55,54,53,91,87,82,30.09,30.06,2,1,4,0.00
2013-7-4,84,72,60,63,59,56,89,67,40,30.06,29.96,4,2,10,0.00
2013-7-5,87,72,60,57,57,56,88,64,36,30.02,29.99,2,1,3,0.00
2013-7-6,69,66,64,65,62,60,88,87,86,30.01,29.98,1,0,1,0.00
2013-7-7,95,77,67,64,62,60,89,68,32,30.02,30.00,5,2,13,0.00
2013-7-8,96,83,69,72,65,-100,87,62,39,30.09,30.01,5,2,10,0.00
2013-7-9,94,84,77,72,71,70,82,65,47,30.08,29.97,12,5,16,0.00
2013-7-10,100,85,77,71,69,67,78,62,35,30.02,29.88,7,2,10,0.00
2013-7-11,95,82,72,73,68,63,89,67,35,30.01,29.92,5,2,11,0.00
2013-7-12,91,81,70,63,61,59,71,52,39,30.06,29.98,7,4,12,0.00
2013-7-16,82,75,70,73,69,66,88,81,70,30.24,30.20,5,1,7,0.01
2013-7-17,96,83,69,75,68,64,87,65,36,30.32,30.16,7,2,11,0.00
2013-7-18,94,80,70,70,67,66,87,68,41,30.20,30.02,5,2,6,0.00
2013-7-19,90,83,72,75,71,68,86,67,53,30.03,29.93,8,3,9,0.00
2013-7-20,81,74,71,72,69,68,89,83,73,29.96,29.92,4,2,6,0.03
2013-7-21,79,74,71,72,70,67,87,85,79,29.93,29.92,3,1,5,0.05
2013-7-22,87,77,66,71,68,62,87,75,50,29.94,29.83,11,4,16,1.82
2013-7-23,92,84,75,76,74,71,87,72,57,29.89,29.83,12,6,17,0.08
2013-7-24,83,76,71,71,70,67,87,80,67,29.99,29.90,6,3,11,0.18
2013-7-25,88,79,66,66,64,62,88,64,45,30.07,30.02,3,2,6,0.00
2013-7-26,72,71,70,68,67,66,88,87,83,30.04,30.01,3,1,6,0.32
2013-7-27,80,71,67,65,63,59,87,77,48,30.02,29.96,5,2,10,0.07
2013-7-28,74,68,64,65,63,60,88,84,73,30.04,30.01,3,1,7,0.00
2013-7-29,83,79,68,73,71,64,88,75,69,30.06,29.99,7,4,14,0.02
2013-7-30,85,76,71,77,70,66,85,82,74,30.04,29.96,4,2,8,2.38
2013-7-31,86,79,75,77,73,69,86,82,71,30.05,30.02,3,1,5,0.02
2013-8-1,87,75,67,69,66,62,86,76,50,30.10,30.03,2,1,5,0.00
2013-8-2,90,80,70,76,72,66,87,77,62,29.98,29.87,5,2,10,0.00
2013-8-3,81,71,68,73,65,63,85,84,77,30.10,30.01,5,2,9,1.21
2013-8-4,76,73,71,72,68,66,86,85,84,30.15,30.07,3,2,9,1.03
2013-8-5,92,82,72,81,75,67,86,80,65,29.98,29.83,7,2,11,0.07
2013-8-6,94,81,73,79,73,69,87,77,60,29.93,29.80,5,2,12,0.03
2013-8-7,86,78,71,79,73,66,87,85,81,29.97,29.81,4,1,8,0.59
2013-8-9,82,79,73,74,72,69,87,80,75,29.98,29.96,4,1,10,0.11
2013-8-10,83,77,70,72,70,66,87,79,68,30.11,30.03,5,2,10,0.01
2013-8-11,81,74,71,76,70,66,87,85,84,30.10,30.01,4,1,9,0.33
2013-8-12,84,78,72,75,71,68,87,81,70,30.04,29.95,8,2,16,0.24
2013-8-13,78,74,70,73,67,-100,87,82,79,30.04,29.98,4,1,8,0.05
2013-8-14,74,68,64,62,61,60,89,78,64,30.15,30.10,6,3,11,0.05
2013-8-15,64,63,61,59,57,57,88,81,78,30.14,30.13,2,1,4,0.00
2013-8-16,76,66,59,61,55,-100,88,75,57,30.11,30.08,4,2,7,0.00
2013-8-17,80,74,60,64,62,56,88,65,54,30.14,30.04,6,2,11,0.00
2013-8-18,81,76,68,67,65,64,88,72,56,30.14,30.09,3,2,8,0.00
2013-8-19,85,76,63,69,54,-100,87,64,49,30.12,30.00,5,2,9,0.00
2013-8-20,80,72,76,69,56,-100,77,73,70,30.10,30.09,2,1,4,0.00
2013-8-21,87,78,65,70,66,61,88,71,55,30.11,30.08,6,2,8,0.00
2013-8-22,92,90,89,72,70,69,58,52,48,30.05,30.02,3,2,4,0.00
2013-8-23,91,80,68,75,71,63,87,76,49,30.09,30.01,4,2,6,0.00
2013-8-24,89,84,75,75,73,71,87,71,56,30.16,30.09,4,3,7,0.00
2013-8-25,92,87,80,75,72,69,82,62,49,30.21,30.13,4,3,9,0.00
2013-8-26,85,85,85,74,74,74,69,69,69,30.20,30.20,4,4,7,0.00
2013-8-27,87,76,68,71,67,64,88,76,52,30.12,30.09,5,2,9,0.00
2013-8-28,92,90,87,73,72,70,63,55,51,30.07,30.01,8,4,10,0.00
2013-8-29,93,79,71,73,70,66,87,75,53,30.07,29.99,3,1,5,0.00
2013-8-30,94,85,73,76,72,69,86,66,46,30.01,29.89,6,2,9,0.00
2013-8-31,91,82,73,73,71,69,87,72,55,29.91,29.80,8,3,14,0.00
2013-9-1,83,77,73,73,71,68,88,81,72,29.89,29.77,12,5,19,0.31
2013-9-2,79,75,70,69,67,66,87,78,65,29.98,29.95,2,1,6,0.19
2013-9-3,85,73,62,66,62,58,87,72,45,30.06,30.02,3,2,6,0.00
2013-9-4,68,64,62,64,60,58,88,88,87,30.13,30.07,3,2,4,0.00
2013-9-5,86,76,61,66,62,57,88,68,41,30.20,30.10,3,2,6,0.00
2013-9-6,83,73,62,66,63,58,88,74,54,30.15,30.13,2,1,6,0.00
2013-9-7,90,79,64,69,66,60,88,69,47,30.05,29.99,4,1,6,0.00
2013-9-8,90,80,69,70,68,65,87,69,50,29.97,29.95,5,2,11,0.00
2013-9-9,72,72,72,68,68,68,86,86,86,29.96,29.96,0,0,3,0.00
2013-9-10,94,85,67,69,66,63,89,55,37,30.12,30.03,8,3,12,0.00
2013-9-11,92,83,69,72,69,65,88,65,48,30.15,30.04,4,1,7,0.02
2013-9-12,77,73,70,72,69,66,88,87,84,30.09,30.06,2,1,4,0.02
2013-9-13,79,73,66,55,53,51,63,51,41,30.09,30.01,4,2,8,0.01
2013-9-14,78,66,55,55,54,52,90,67,45,30.10,30.02,4,2,7,0.00
2013-9-15,62,58,56,54,52,50,83,79,75,30.05,30.03,3,1,5,0.00
2013-9-16,71,71,71,67,67,67,88,88,87,30.17,30.12,1,1,2,0.37
2013-9-17,78,71,67,69,65,63,88,83,72,30.15,30.06,5,2,9,0.01
2013-9-18,70,70,70,65,65,65,85,85,85,30.01,30.01,4,4,5,0.00
2013-9-19,79,74,73,70,67,65,83,77,73,29.97,29.95,2,0,4,0.00
2013-9-20,69,68,66,65,63,58,87,85,76,29.96,29.92,5,2,8,1.14
2013-9-21,56,55,54,53,52,51,91,90,90,29.99,29.97,1,1,3,0.05
2013-9-23,78,78,77,59,58,56,52,50,47,29.81,29.80,8,5,15,0.00
2013-9-24,76,64,59,59,57,56,89,80,56,29.88,29.82,11,4,17,0.00
2013-9-25,78,69,57,63,60,54,89,76,56,29.88,29.82,6,3,9,0.00
2013-9-26,82,64,57,63,58,54,90,81,53,29.96,29.87,3,2,9,0.00
2013-9-27,71,69,65,65,64,61,88,84,82,30.02,30.02,2,1,4,0.00
2013-9-28,81,74,69,68,65,63,80,73,63,29.96,29.93,7,4,14,0.00
2013-9-29,71,65,58,58,57,55,89,76,64,30.05,30.01,3,2,7,0.71
2013-9-30,78,70,60,67,63,56,88,79,67,29.93,29.83,6,2,10,0.01
2013-10-1,83,81,80,68,68,67,66,63,58,29.92,29.92,1,1,3,0.00
2013-10-2,84,76,66,72,68,62,87,77,61,30.03,29.91,5,2,13,0.00
2013-10-3,85,77,66,70,68,62,87,75,58,29.95,29.85,5,3,13,0.00
2013-10-4,81,75,70,71,69,66,88,81,70,29.93,29.91,7,4,12,0.00
2013-10-5,65,54,50,61,51,47,91,90,87,30.00,29.95,9,3,18,1.78
2013-10-6,54,54,53,43,43,43,68,67,67,29.98,29.97,12,12,21,0.42
2013-10-7,70,67,64,48,47,46,55,50,46,30.11,30.09,5,4,10,0.00
2013-10-8,69,54,46,53,48,44,91,82,51,30.16,30.13,5,2,12,0.00
2013-10-9,75,57,46,52,48,44,91,76,41,30.11,30.03,3,2,6,0.00
2013-10-10,76,61,50,59,52,47,91,77,54,30.10,30.00,4,2,8,0.00
2013-10-11,81,70,55,65,61,52,90,74,58,29.96,29.85,8,4,16,0.00
2013-10-12,67,63,60,62,59,57,89,88,85,30.08,29.98,3,1,10,0.38
2013-10-13,64,61,60,49,47,46,66,61,53,30.32,30.25,7,3,12,0.01
2013-10-14,64,59,55,52,49,47,77,68,63,30.20,30.14,4,3,9,0.00
2013-10-15,65,63,61,61,59,57,89,88,84,29.96,29.90,9,4,13,0.41
2013-10-16,58,50,45,44,42,41,87,77,60,30.09,29.99,6,3,13,0.01
2013-10-17,58,51,45,47,45,43,92,81,64,30.03,30.01,7,3,14,0.01
2013-10-19,55,43,39,41,38,36,91,83,59,30.11,30.03,8,8,13,0.19
2013-10-20,49,46,44,42,40,39,82,80,78,30.00,29.98,2,2,7,0.00
2013-10-23,55,55,55,41,41,41,58,58,58,29.99,29.99,1,1,2,0.00
2013-10-24,52,46,41,40,36,30,91,71,47,30.31,30.17,7,3,13,0.00
2013-10-25,54,46,33,34,29,27,90,56,39,30.49,30.36,7,3,12,0.00
2013-10-26,64,54,45,55,46,40,81,75,70,30.16,30.07,14,6,20,0.00
2013-10-27,67,58,43,42,39,34,88,54,31,30.09,29.96,6,2,8,0.00
2013-10-28,65,62,59,53,53,52,77,70,64,30.11,30.08,6,3,10,0.00
2013-10-29,61,58,57,57,55,54,89,89,88,30.09,30.06,3,2,7,0.40
2013-10-31,72,67,59,60,57,54,88,69,54,29.57,29.43,23,15,30,0.70
2013-11-1,65,57,47,47,44,41,90,65,41,29.83,29.77,10,6,20,0.02
2013-11-2,52,48,45,41,40,40,86,76,63,30.17,30.09,11,8,19,0.00
2013-11-3,60,51,42,41,40,39,92,68,45,30.23,30.10,5,3,13,0.01
2013-11-4,57,54,51,47,45,42,75,71,69,30.10,30.04,8,5,15,0.00
2013-11-6,47,43,42,44,41,39,91,90,87,30.19,30.05,12,9,21,0.54
2013-11-9,58,53,47,44,43,41,84,69,57,30.16,30.15,7,3,11,0.00
2013-11-10,56,54,49,45,42,39,86,64,55,30.37,30.36,6,3,11,0.00
2013-11-11,63,56,47,53,48,41,86,75,65,30.23,30.16,3,1,10,0.00
2013-11-12,32,29,28,22,21,20,76,70,63,30.72,30.64,8,5,17,0.00
2013-11-13,39,28,21,24,21,18,89,77,55,30.63,30.35,4,2,7,0.00
2013-11-14,56,41,29,26,24,23,86,56,28,30.23,30.06,4,2,9,0.00
2013-11-15,55,49,43,48,44,35,90,83,69,30.02,29.87,7,3,17,0.08
2013-11-16,70,65,62,59,58,56,83,76,67,29.79,29.63,14,9,24,0.00
2013-11-17,74,71,68,64,49,34,78,50,28,29.75,29.52,21,16,36,0.00
2013-11-18,62,52,42,40,34,24,81,56,23,30.23,30.20,7,2,10,0.00
2013-11-19,56,53,43,31,29,27,63,41,33,30.27,30.11,8,6,15,0.00
2013-11-20,66,54,42,29,26,18,58,38,16,30.04,29.90,9,5,18,0.00
2013-11-21,50,49,49,47,46,46,92,91,91,30.10,30.03,3,1,6,1.16
2013-11-22,34,33,32,32,31,30,92,91,90,30.47,30.38,8,4,15,0.01
2013-11-23,36,33,31,28,24,19,88,68,49,30.60,30.57,5,3,12,0.01
2013-11-24,27,22,18,13,12,11,76,67,53,30.67,30.52,3,2,10,0.00
2013-11-25,35,32,28,32,28,21,88,83,76,30.28,30.15,3,1,5,0.00
2013-11-26,44,39,33,31,29,24,77,67,55,30.22,30.08,12,7,21,0.01
2013-11-27,28,24,21,13,12,12,69,61,52,30.39,30.38,7,6,12,0.00
2013-11-28,49,38,29,30,22,16,62,53,43,30.31,30.28,9,6,16,0.00
2013-11-29,55,43,28,35,32,26,93,68,44,30.49,30.32,3,2,6,0.00
2013-11-30,44,39,33,34,32,30,89,79,69,30.24,30.23,2,1,6,0.00
2013-12-1,47,45,43,44,43,41,91,91,90,30.09,30.09,0,0,0,0.00
2013-12-2,62,52,45,52,47,42,90,83,70,29.80,29.64,3,2,6,0.00
2013-12-3,59,48,41,53,45,39,91,89,80,29.66,29.55,7,2,10,0.01
2013-12-4,63,52,44,51,46,41,90,81,59,29.81,29.56,11,6,20,0.00
2013-12-5,28,26,23,22,21,20,89,79,74,30.18,30.09,7,5,14,0.00
2013-12-6,19,18,17,17,16,11,93,90,76,30.49,30.27,4,3,9,0.00
2013-12-7,21,16,7,10,7,3,83,68,58,30.61,30.42,6,3,10,0.00
2013-12-8,27,23,19,24,20,17,90,89,89,30.13,29.98,4,2,8,0.00
2013-12-9,25,25,24,20,18,15,85,76,69,30.31,30.22,7,4,12,0.00
2013-12-10,32,24,15,18,16,13,92,75,55,30.39,30.33,9,5,15,0.00
2013-12-11,34,31,29,21,19,18,64,62,59,30.53,30.50,4,2,10,0.05
2013-12-12,46,33,14,22,18,12,92,59,35,30.55,30.34,7,3,11,0.06
2013-12-13,36,34,32,33,30,26,91,84,70,30.13,30.03,5,3,9,0.20
2013-12-14,36,32,30,34,30,27,92,91,89,30.11,29.89,15,10,23,0.62
2013-12-15,49,34,23,33,27,21,92,78,54,30.22,30.10,9,5,16,0.00
2013-12-16,59,50,42,36,34,32,68,56,40,30.10,30.02,7,5,11,0.00
2013-12-17,53,46,38,37,33,31,77,63,45,30.27,30.25,10,3,16,0.00
2013-12-18,62,48,28,37,34,26,93,64,36,30.21,29.99,12,4,20,0.00
2013-12-19,60,58,55,51,51,49,80,75,72,29.88,29.74,9,6,19,0.00
2013-12-20,65,58,38,59,53,36,92,83,77,29.84,29.73,10,7,22,0.01
2013-12-21,36,35,34,34,33,32,93,93,93,29.75,29.49,4,2,8,1.76
2013-12-22,32,30,29,28,26,25,86,85,81,30.04,29.96,15,10,25,0.14
2013-12-23,29,25,23,21,20,18,88,82,63,30.51,30.45,6,4,11,0.00
2013-12-24,16,16,16,14,14,13,90,90,89,30.52,30.51,2,2,5,0.00
2013-12-25,41,39,36,33,32,30,78,76,74,30.32,30.28,10,7,14,0.00
2013-12-26,42,34,25,36,31,24,94,89,78,30.39,30.33,2,2,4,0.00
2013-12-27,55,43,36,35,33,30,82,69,46,30.40,30.29,0,0,3,0.00
2013-12-28,54,44,28,34,30,26,93,60,41,30.21,29.96,5,2,6,0.00
2013-12-29,39,30,24,33,26,18,85,82,79,30.19,30.02,8,6,21,0.00
2013-12-30,38,32,14,24,20,10,83,63,52,30.27,30.18,5,2,8,0.00
2013-12-31,43,31,25,28,23,20,80,72,56,30.36,30.31,3,2,6,0.00
2014-1-1,50,44,32,34,31,27,87,63,50,30.06,29.85,5,3,13,0.00
2014-1-2,20,16,12,12,11,9,88,80,72,30.37,30.33,10,7,17,0.00